Garrison, Minnesota
Current Conditions -  °F | °C
As of 6:53 PM on Sunday 21 Dec 2014 (Local Time) from KBRD Reporting Station
Haze Haze  
Wind Chill: 26°   Ceiling: 300
Heat Index: 33°   Visibility: 1.5mi
Dew Point: 33°   Wind: 8mph
Humidity: 100%   Direction: 150°SSE
Pressure: 29.67"   Gusts: NA
Location:  46.29°N, 93.83°W
Report Text: KBRD 220053Z AUTO 15007KT 1 1/2SM BR OVC003 01/01 A2967 RMK AO2 SLP064 T00060006
Loading
Personal Weather Stations






























Interactive Weather Map New forecast layout! Learn more

10-Day Weather Forecast

Advertisements
Track Severe Weather on mobile